createdAt,value
2019-04-06T00:00:37.015Z,93977.03
2019-04-06T00:03:07.005Z,93973.67
2019-04-06T00:05:37.011Z,93971.55
2019-04-06T00:08:06.933Z,93972.83
2019-04-06T00:10:36.833Z,93975.10
2019-04-06T00:13:06.712Z,93966.19
2019-04-06T00:15:36.627Z,93968.17
2019-04-06T00:18:06.576Z,93970.70
2019-04-06T00:20:36.482Z,93967.87
2019-04-06T00:23:06.454Z,93968.39
2019-04-06T00:25:44.258Z,93965.02
2019-04-06T00:28:07.957Z,93958.22
2019-04-06T00:30:55.723Z,93961.52
2019-04-06T00:33:25.655Z,93957.05
2019-04-06T00:35:55.630Z,93962.05
2019-04-06T00:38:25.620Z,93957.62
2019-04-06T00:40:55.612Z,93967.33
2019-04-06T00:43:25.530Z,93971.13
2019-04-06T00:45:55.436Z,93974.98
2019-04-06T00:48:25.331Z,93978.27
2019-04-06T00:50:55.247Z,93978.44
2019-04-06T00:53:25.076Z,93972.80
2019-04-06T00:55:56.336Z,93973.72
2019-04-06T00:58:26.315Z,93971.98
2019-04-06T01:00:56.214Z,93976.06
2019-04-06T01:03:26.141Z,93968.55
2019-04-06T01:05:56.042Z,93982.63
2019-04-06T01:08:25.919Z,93972.94
2019-04-06T01:10:55.844Z,93964.93
2019-04-06T01:13:25.679Z,93964.76
2019-04-06T01:15:55.592Z,93974.45
2019-04-06T01:18:25.622Z,93966.92
2019-04-06T01:20:56.613Z,93971.03
2019-04-06T01:23:26.541Z,93979.06
2019-04-06T01:26:06.697Z,93974.66
2019-04-06T01:28:28.221Z,93974.02
2019-04-06T01:30:58.189Z,93966.05
2019-04-06T01:33:28.041Z,93961.70
2019-04-06T01:35:58.021Z,93957.10
2019-04-06T01:38:27.922Z,93958.81
2019-04-06T01:40:57.849Z,93962.65
2019-04-06T01:43:27.724Z,93948.94
2019-04-06T01:45:57.698Z,93956.66
2019-04-06T01:48:27.681Z,93958.42
2019-04-06T01:50:57.643Z,93958.72
2019-04-06T01:53:27.501Z,93953.82
2019-04-06T01:55:57.760Z,93945.75
2019-04-06T01:58:27.660Z,93949.77
2019-04-06T02:01:11.003Z,93952.33
2019-04-06T02:03:40.908Z,93948.72
2019-04-06T02:06:10.739Z,93952.50
2019-04-06T02:08:40.636Z,93949.92
2019-04-06T02:11:10.640Z,93954.48
2019-04-06T02:13:40.539Z,93953.12
2019-04-06T02:16:10.431Z,93950.00
2019-04-06T02:18:41.412Z,93948.56
2019-04-06T02:21:11.298Z,93958.00
2019-04-06T02:23:41.274Z,93955.38
2019-04-06T02:26:11.095Z,93954.09
2019-04-06T02:28:40.968Z,93949.75
2019-04-06T02:31:14.596Z,93953.48
2019-04-06T02:33:55.959Z,93950.27
2019-04-06T02:36:43.521Z,93940.25
2019-04-06T02:39:20.189Z,93944.37
2019-04-06T02:41:55.017Z,93936.81
2019-04-06T02:44:25.018Z,93941.87
2019-04-06T02:46:54.994Z,93942.83
2019-04-06T02:49:24.903Z,93938.19
2019-04-06T02:51:54.809Z,93938.12
2019-04-06T02:54:24.663Z,93938.69
2019-04-06T02:56:54.578Z,93937.85
2019-04-06T02:59:25.490Z,93940.41
2019-04-06T03:01:55.477Z,93941.67
2019-04-06T03:04:25.597Z,93945.03
2019-04-06T03:06:55.607Z,93943.10
2019-04-06T03:09:26.529Z,93942.45
2019-04-06T03:11:56.407Z,93937.27
2019-04-06T03:14:26.432Z,93937.14
2019-04-06T03:16:56.384Z,93933.09
2019-04-06T03:19:26.286Z,93928.30
2019-04-06T03:21:56.260Z,93928.88
2019-04-06T03:24:26.236Z,93932.00
2019-04-06T03:27:01.975Z,93929.72
2019-04-06T03:29:27.734Z,93930.95
2019-04-06T03:31:57.647Z,93931.72
2019-04-06T03:34:27.840Z,93927.19
2019-04-06T03:36:57.707Z,93931.24
2019-04-06T03:39:27.646Z,93928.02
2019-04-06T03:41:57.597Z,93923.75
2019-04-06T03:44:27.510Z,93922.30
2019-04-06T03:46:57.398Z,93931.25
2019-04-06T03:49:27.478Z,93925.13
2019-04-06T03:51:57.461Z,93921.95
2019-04-06T03:54:27.351Z,93924.58
2019-04-06T03:56:57.530Z,93927.45
2019-04-06T03:59:27.658Z,93925.86
2019-04-06T04:01:57.473Z,93926.23
2019-04-06T04:04:27.515Z,93931.97
2019-04-06T04:06:57.316Z,93929.72
2019-04-06T04:09:27.255Z,93929.18
2019-04-06T04:11:57.355Z,93924.69
2019-04-06T04:14:28.787Z,93928.66
2019-04-06T04:16:58.761Z,93924.17
2019-04-06T04:19:28.798Z,93924.70
2019-04-06T04:21:58.990Z,93932.30
2019-04-06T04:24:28.771Z,93935.69
2019-04-06T04:26:58.614Z,93933.56
2019-04-06T04:29:28.449Z,93928.53
2019-04-06T04:31:58.371Z,93923.38
2019-04-06T04:34:28.275Z,93924.91
2019-04-06T04:36:58.175Z,93929.03
2019-04-06T04:39:28.044Z,93927.73
2019-04-06T04:41:58.000Z,93931.07
2019-04-06T04:44:27.911Z,93940.22
2019-04-06T04:46:57.831Z,93938.03
2019-04-06T04:49:27.746Z,93943.16
2019-04-06T04:51:57.712Z,93949.63
2019-04-06T04:54:27.607Z,93948.06
2019-04-06T04:56:57.466Z,93950.41
2019-04-06T04:59:27.413Z,93945.69
2019-04-06T05:01:57.217Z,93948.63
2019-04-06T05:04:27.119Z,93952.05
2019-04-06T05:06:56.947Z,93957.58
2019-04-06T05:09:26.898Z,93959.42
2019-04-06T05:11:56.729Z,93959.70
2019-04-06T05:14:57.511Z,93960.99
2019-04-06T05:17:29.459Z,93955.72
2019-04-06T05:19:59.455Z,93954.72
2019-04-06T05:22:29.530Z,93967.98
2019-04-06T05:24:59.505Z,93960.77
2019-04-06T05:27:29.489Z,93963.52
2019-04-06T05:30:00.281Z,93956.39
2019-04-06T05:32:31.180Z,93964.92
2019-04-06T05:35:01.021Z,93968.95
2019-04-06T05:37:30.855Z,93962.36
2019-04-06T05:40:00.855Z,93962.02
2019-04-06T05:42:30.770Z,93966.67
2019-04-06T05:45:00.596Z,93960.74
2019-04-06T05:47:30.593Z,93975.27
2019-04-06T05:50:00.636Z,93975.77
2019-04-06T05:52:30.679Z,93980.45
2019-04-06T05:55:00.586Z,93980.44
2019-04-06T05:57:32.128Z,93983.75
2019-04-06T06:00:03.076Z,93987.02
2019-04-06T06:02:32.923Z,93987.02
2019-04-06T06:05:02.927Z,93984.21
2019-04-06T06:07:33.902Z,93987.69
2019-04-06T06:10:03.927Z,93993.07
2019-04-06T06:12:33.841Z,93990.61
2019-04-06T06:15:04.397Z,93988.52
2019-04-06T06:17:36.392Z,93984.55
2019-04-06T06:20:06.475Z,93988.52
2019-04-06T06:22:36.447Z,93983.33
2019-04-06T06:25:06.709Z,93981.27
2019-04-06T06:27:36.619Z,93984.45
2019-04-06T06:30:08.532Z,93983.44
2019-04-06T06:32:38.522Z,93985.88
2019-04-06T06:35:08.963Z,93986.20
2019-04-06T06:37:39.105Z,93984.13
2019-04-06T06:40:09.394Z,93986.33
2019-04-06T06:42:39.392Z,93985.25
2019-04-06T06:45:09.828Z,93991.89
2019-04-06T06:47:39.980Z,93992.52
2019-04-06T06:50:10.074Z,93986.27
2019-04-06T06:52:40.182Z,93990.03
2019-04-06T06:55:10.300Z,93991.83
2019-04-06T06:57:40.411Z,93995.56
2019-04-06T07:00:12.479Z,93992.63
2019-04-06T07:02:42.494Z,93985.63
2019-04-06T07:05:12.674Z,93986.98
2019-04-06T07:07:42.601Z,93988.63
2019-04-06T07:10:12.590Z,93990.08
2019-04-06T07:12:42.526Z,93983.52
2019-04-06T07:15:12.642Z,93989.66
2019-04-06T07:17:42.696Z,93990.45
2019-04-06T07:20:13.197Z,93986.59
2019-04-06T07:22:43.278Z,93986.82
2019-04-06T07:25:13.460Z,93992.93
2019-04-06T07:27:43.430Z,93992.08
2019-04-06T07:30:13.768Z,93990.09
2019-04-06T07:32:43.893Z,93992.47
2019-04-06T07:35:14.328Z,93996.20
2019-04-06T07:37:45.210Z,93989.60
2019-04-06T07:40:15.535Z,93990.87
2019-04-06T07:42:45.953Z,93986.52
2019-04-06T07:45:17.800Z,93988.19
2019-04-06T07:47:47.627Z,93991.41
2019-04-06T07:50:17.714Z,93982.41
2019-04-06T07:52:47.744Z,93981.55
2019-04-06T07:55:20.524Z,93983.81
2019-04-06T07:57:50.367Z,93984.59
2019-04-06T08:00:20.643Z,93973.91
2019-04-06T08:02:50.742Z,93975.00
2019-04-06T08:05:20.657Z,93974.90
2019-04-06T08:07:50.809Z,93973.23
2019-04-06T08:10:20.692Z,93977.05
2019-04-06T08:12:50.537Z,93977.98
2019-04-06T08:15:20.464Z,93979.27
2019-04-06T08:17:50.508Z,93975.98
2019-04-06T08:20:20.646Z,93969.63
2019-04-06T08:22:50.661Z,93967.34
2019-04-06T08:25:20.673Z,93969.89
2019-04-06T08:27:50.683Z,93970.42
2019-04-06T08:30:20.878Z,93975.62
2019-04-06T08:32:50.769Z,93963.19
2019-04-06T08:35:25.758Z,93959.20
2019-04-06T08:37:52.537Z,93962.23
2019-04-06T08:40:23.615Z,93966.38
2019-04-06T08:42:53.615Z,93971.92
2019-04-06T08:45:23.594Z,93971.25
2019-04-06T08:47:53.745Z,93963.73
2019-04-06T08:50:23.648Z,93967.62
2019-04-06T08:52:53.485Z,93964.06
2019-04-06T08:55:23.346Z,93967.45
2019-04-06T08:57:53.396Z,93963.02
2019-04-06T09:00:23.517Z,93959.96
2019-04-06T09:02:53.900Z,93950.80
2019-04-06T09:05:23.911Z,93952.52
2019-04-06T09:07:53.873Z,93955.21
2019-04-06T09:10:24.353Z,93949.24
2019-04-06T09:12:55.257Z,93945.28
2019-04-06T09:15:25.147Z,93940.87
2019-04-06T09:17:55.210Z,93945.17
2019-04-06T09:20:25.230Z,93946.91
2019-04-06T09:22:55.124Z,93947.31
2019-04-06T09:25:25.016Z,93947.25
2019-04-06T09:27:54.863Z,93941.43
2019-04-06T09:30:24.907Z,93941.92
2019-04-06T09:32:54.954Z,93935.91
2019-04-06T09:35:24.944Z,93940.04
2019-04-06T09:37:54.856Z,93927.13
2019-04-06T09:40:24.726Z,93924.64
2019-04-06T09:42:54.641Z,93923.80
2019-04-06T09:45:42.107Z,93916.70
2019-04-06T09:48:21.392Z,93912.67
2019-04-06T09:51:11.794Z,93913.12
2019-04-06T09:54:12.877Z,93916.45
2019-04-06T09:56:55.925Z,93901.94
2019-04-06T09:59:37.033Z,93907.95
2019-04-06T10:02:16.978Z,93908.48
2019-04-06T10:05:14.188Z,93901.90
2019-04-06T10:08:05.756Z,93897.61
2019-04-06T10:10:48.197Z,93892.60
2019-04-06T10:13:39.891Z,93888.12
2019-04-06T10:16:28.070Z,93882.96
2019-04-06T10:19:16.074Z,93877.56
2019-04-06T10:21:58.798Z,93880.13
2019-04-06T10:24:47.703Z,93874.47
2019-04-06T10:27:51.801Z,93876.50
2019-04-06T10:30:35.702Z,93877.80
2019-04-06T10:33:24.663Z,93869.30
2019-04-06T10:36:14.675Z,93868.25
2019-04-06T10:39:02.534Z,93863.45
2019-04-06T10:42:02.451Z,93863.18
2019-04-06T10:45:00.515Z,93857.89
2019-04-06T10:48:00.268Z,93850.36
2019-04-06T10:50:49.577Z,93850.61
2019-04-06T10:53:32.794Z,93845.45
2019-04-06T10:56:37.012Z,93832.11
2019-04-06T10:59:40.994Z,93839.77
2019-04-06T11:02:28.806Z,93829.45
2019-04-06T11:05:30.141Z,93835.75
2019-04-06T11:08:19.184Z,93823.18
2019-04-06T11:11:08.106Z,93821.11
2019-04-06T11:14:03.074Z,93816.44
2019-04-06T11:16:57.929Z,93812.47
2019-04-06T11:19:45.669Z,93809.59
2019-04-06T11:22:27.578Z,93805.80
2019-04-06T11:25:19.661Z,93800.45
2019-04-06T11:27:56.138Z,93794.14
2019-04-06T11:31:03.300Z,93798.67
2019-04-06T11:34:01.187Z,93796.94
2019-04-06T11:36:55.732Z,93797.49
2019-04-06T11:39:56.813Z,93790.61
2019-04-06T11:42:33.892Z,93792.46
2019-04-06T11:45:19.193Z,93789.00
2019-04-06T11:47:56.579Z,93785.37
2019-04-06T11:50:39.606Z,93789.27
2019-04-06T11:53:46.841Z,93780.15
2019-04-06T11:56:34.472Z,93785.45
2019-04-06T11:59:22.461Z,93790.16
2019-04-06T12:02:26.651Z,93784.37
2019-04-06T12:05:21.740Z,93780.55
2019-04-06T12:08:25.783Z,93790.20
2019-04-06T12:11:13.417Z,93788.34
2019-04-06T12:13:51.870Z,93780.73
2019-04-06T12:16:52.891Z,93783.19
2019-04-06T12:19:49.768Z,93780.58
2019-04-06T12:22:44.644Z,93785.77
2019-04-06T12:25:29.841Z,93779.78
2019-04-06T12:28:21.366Z,93784.95
2019-04-06T12:31:18.028Z,93776.83
2019-04-06T12:33:58.313Z,93779.55
2019-04-06T12:36:37.451Z,93775.42
2019-04-06T12:39:27.534Z,93783.57
2019-04-06T12:42:08.504Z,93770.02
2019-04-06T12:44:49.686Z,93777.19
2019-04-06T12:47:28.599Z,93773.23
2019-04-06T12:50:26.859Z,93780.45
2019-04-06T12:53:27.574Z,93776.48
2019-04-06T12:56:19.185Z,93778.45
2019-04-06T12:59:20.168Z,93770.69
2019-04-06T13:02:08.197Z,93776.24
2019-04-06T13:04:59.945Z,93761.09
2019-04-06T13:07:48.198Z,93767.64
2019-04-06T13:10:36.139Z,93772.66
2019-04-06T13:13:27.911Z,93770.89
2019-04-06T13:16:20.230Z,93771.44
2019-04-06T13:19:15.322Z,93765.28
2019-04-06T13:22:22.529Z,93760.47
2019-04-06T13:25:01.107Z,93756.72
2019-04-06T13:27:52.964Z,93752.42
2019-04-06T13:31:02.102Z,93737.80
2019-04-06T13:33:31.786Z,93737.86
2019-04-06T13:36:12.307Z,93746.71
2019-04-06T13:38:49.434Z,93735.67
2019-04-06T13:41:34.496Z,93733.84
2019-04-06T13:44:12.539Z,93735.34
2019-04-06T13:47:10.779Z,93727.63
2019-04-06T13:49:58.742Z,93738.75
2019-04-06T13:52:46.614Z,93738.63
2019-04-06T13:55:32.440Z,93734.27
2019-04-06T13:58:11.176Z,93736.67
2019-04-06T14:01:16.015Z,93729.22
2019-04-06T14:03:57.090Z,93727.00
2019-04-06T14:06:44.850Z,93723.33
2019-04-06T14:09:33.447Z,93720.58
2019-04-06T14:12:09.616Z,93724.73
2019-04-06T14:14:46.516Z,93727.81
2019-04-06T14:17:25.333Z,93731.75
2019-04-06T14:20:14.231Z,93737.09
2019-04-06T14:22:54.569Z,93742.90
2019-04-06T14:25:46.201Z,93735.51
2019-04-06T14:28:28.679Z,93735.44
2019-04-06T14:31:27.399Z,93733.17
2019-04-06T14:34:10.500Z,93735.61
2019-04-06T14:37:08.705Z,93723.70
2019-04-06T14:39:56.325Z,93731.62
2019-04-06T14:42:43.935Z,93720.63
2019-04-06T14:45:30.240Z,93725.22
2019-04-06T14:48:12.514Z,93731.55
2019-04-06T14:50:51.951Z,93728.11
2019-04-06T14:53:29.225Z,93726.61
2019-04-06T14:56:20.976Z,93729.75
2019-04-06T14:59:09.066Z,93730.95
2019-04-06T15:02:07.253Z,93736.11
2019-04-06T15:04:55.030Z,93735.63
2019-04-06T15:07:30.951Z,93734.91
2019-04-06T15:10:11.939Z,93736.59
2019-04-06T15:12:59.829Z,93735.72
2019-04-06T15:15:47.323Z,93741.29
2019-04-06T15:18:35.277Z,93739.50
2019-04-06T15:21:21.539Z,93743.13
2019-04-06T15:24:13.972Z,93739.73
2019-04-06T15:27:08.835Z,93737.84
2019-04-06T15:30:01.013Z,93728.45
2019-04-06T15:32:44.749Z,93729.41
2019-04-06T15:35:32.464Z,93727.63
2019-04-06T15:38:21.355Z,93732.07
2019-04-06T15:41:06.393Z,93730.72
2019-04-06T15:43:58.343Z,93732.06
2019-04-06T15:46:49.446Z,93727.20
2019-04-06T15:49:50.564Z,93729.11
2019-04-06T15:52:38.406Z,93731.20
2019-04-06T15:55:25.870Z,93726.97
2019-04-06T15:58:17.763Z,93726.81
2019-04-06T16:01:05.317Z,93722.89
2019-04-06T16:03:48.837Z,93726.06
2019-04-06T16:06:50.462Z,93726.94
2019-04-06T16:09:38.940Z,93726.94
2019-04-06T16:12:33.741Z,93724.02
2019-04-06T16:15:18.822Z,93728.37
2019-04-06T16:18:07.717Z,93725.92
2019-04-06T16:20:59.676Z,93725.78
2019-04-06T16:24:01.533Z,93721.64
2019-04-06T16:26:34.152Z,93722.48
2019-04-06T16:29:26.072Z,93719.07
2019-04-06T16:32:32.963Z,93721.55
2019-04-06T16:35:17.249Z,93720.11
2019-04-06T16:38:00.535Z,93722.84
2019-04-06T16:40:37.095Z,93721.61
2019-04-06T16:43:16.558Z,93721.91
2019-04-06T16:45:53.924Z,93724.59
2019-04-06T16:48:37.876Z,93724.69
2019-04-06T16:51:29.823Z,93725.77
2019-04-06T16:54:33.962Z,93725.52
2019-04-06T16:57:22.721Z,93728.92
2019-04-06T17:00:20.084Z,93733.89
2019-04-06T17:03:10.908Z,93725.48
2019-04-06T17:06:11.828Z,93724.54
2019-04-06T17:08:52.360Z,93721.71
2019-04-06T17:11:38.325Z,93719.91
2019-04-06T17:14:27.426Z,93718.17
2019-04-06T17:17:06.421Z,93723.17
2019-04-06T17:19:53.949Z,93729.02
2019-04-06T17:22:29.392Z,93720.75
2019-04-06T17:25:14.056Z,93718.57
2019-04-06T17:27:52.560Z,93725.37
2019-04-06T17:30:28.006Z,93726.41
2019-04-06T17:33:16.936Z,93729.78
2019-04-06T17:35:54.777Z,93734.73
2019-04-06T17:38:52.475Z,93738.48
2019-04-06T17:41:50.646Z,93743.14
2019-04-06T17:44:32.502Z,93738.23
2019-04-06T17:47:24.372Z,93735.91
2019-04-06T17:50:22.019Z,93742.66
2019-04-06T17:53:06.527Z,93744.45
2019-04-06T17:55:54.889Z,93737.73
2019-04-06T17:58:50.708Z,93732.84
2019-04-06T18:01:44.592Z,93734.11
2019-04-06T18:04:28.139Z,93742.12
2019-04-06T18:07:15.101Z,93743.95
2019-04-06T18:10:03.349Z,93749.37
2019-04-06T18:12:48.631Z,93764.07
2019-04-06T18:15:18.802Z,93758.61
2019-04-06T18:17:49.407Z,93759.67
2019-04-06T18:20:19.685Z,93760.20
2019-04-06T18:22:50.148Z,93761.47
2019-04-06T18:25:20.269Z,93760.67
2019-04-06T18:27:50.558Z,93764.80
2019-04-06T18:30:21.291Z,93763.77
2019-04-06T18:33:00.721Z,93768.92
2019-04-06T18:35:27.179Z,93772.52
2019-04-06T18:38:02.522Z,93774.57
2019-04-06T18:40:32.671Z,93776.36
2019-04-06T18:43:02.608Z,93771.19
2019-04-06T18:45:33.315Z,93777.58
2019-04-06T18:48:03.452Z,93784.52
2019-04-06T18:50:38.034Z,93784.50
2019-04-06T18:53:05.578Z,93783.51
2019-04-06T18:55:35.971Z,93788.69
2019-04-06T18:58:12.131Z,93783.77
2019-04-06T19:00:37.638Z,93783.20
2019-04-06T19:03:14.723Z,93792.22
2019-04-06T19:05:39.299Z,93785.51
2019-04-06T19:08:09.603Z,93787.56
2019-04-06T19:10:39.937Z,93788.08
2019-04-06T19:13:10.002Z,93790.16
2019-04-06T19:15:39.959Z,93787.81
2019-04-06T19:18:10.037Z,93796.52
2019-04-06T19:20:40.780Z,93794.74
2019-04-06T19:23:10.861Z,93794.24
2019-04-06T19:25:41.028Z,93791.91
2019-04-06T19:28:12.106Z,93792.61
2019-04-06T19:30:42.010Z,93783.07
2019-04-06T19:33:22.563Z,93785.34
2019-04-06T19:35:43.684Z,93779.69
2019-04-06T19:38:13.586Z,93779.66
2019-04-06T19:40:43.839Z,93777.33
2019-04-06T19:43:15.133Z,93774.45
2019-04-06T19:45:45.396Z,93770.00
2019-04-06T19:48:15.305Z,93770.76
2019-04-06T19:50:45.298Z,93773.83
2019-04-06T19:53:15.293Z,93765.79
2019-04-06T19:55:45.554Z,93758.27
2019-04-06T19:58:15.424Z,93760.56
2019-04-06T20:00:45.659Z,93751.28
2019-04-06T20:03:16.720Z,93758.75
2019-04-06T20:05:46.796Z,93751.27
2019-04-06T20:08:17.123Z,93747.07
2019-04-06T20:10:47.903Z,93724.20
2019-04-06T20:13:17.911Z,93752.23
2019-04-06T20:15:47.840Z,93747.22
2019-04-06T20:18:18.101Z,93749.80
2019-04-06T20:20:49.499Z,93750.02
2019-04-06T20:23:19.598Z,93753.38
2019-04-06T20:25:50.308Z,93751.48
2019-04-06T20:28:20.277Z,93752.27
2019-04-06T20:30:50.129Z,93754.27
2019-04-06T20:33:20.602Z,93751.44
2019-04-06T20:35:50.708Z,93743.69
2019-04-06T20:38:20.846Z,93751.63
2019-04-06T20:40:50.827Z,93753.38
2019-04-06T20:43:21.313Z,93753.10
2019-04-06T20:45:51.335Z,93747.42
2019-04-06T20:48:21.509Z,93764.61
2019-04-06T20:50:51.406Z,93752.70
2019-04-06T20:53:21.377Z,93758.63
2019-04-06T20:55:51.311Z,93755.48
2019-04-06T20:58:21.149Z,93754.98
2019-04-06T21:00:51.266Z,93752.34
2019-04-06T21:03:22.187Z,93751.06
2019-04-06T21:05:52.180Z,93753.64
2019-04-06T21:08:22.486Z,93753.13
2019-04-06T21:10:52.427Z,93747.36
2019-04-06T21:13:22.439Z,93747.03
2019-04-06T21:15:52.461Z,93746.19
2019-04-06T21:18:22.360Z,93739.70
2019-04-06T21:20:52.271Z,93740.41
2019-04-06T21:23:22.782Z,93740.89
2019-04-06T21:25:52.842Z,93741.57
2019-04-06T21:28:42.123Z,93744.69
2019-04-06T21:31:12.664Z,93749.08
2019-04-06T21:33:45.428Z,93750.30
2019-04-06T21:36:14.207Z,93747.93
2019-04-06T21:38:44.545Z,93748.37
2019-04-06T21:41:15.001Z,93747.80
2019-04-06T21:43:44.953Z,93746.20
2019-04-06T21:46:15.800Z,93741.03
2019-04-06T21:48:45.825Z,93739.64
2019-04-06T21:51:15.903Z,93740.38
2019-04-06T21:53:46.761Z,93744.44
2019-04-06T21:56:16.884Z,93743.92
2019-04-06T21:58:46.766Z,93739.19
2019-04-06T22:01:19.795Z,93741.76
2019-04-06T22:03:51.637Z,93747.44
2019-04-06T22:06:24.347Z,93744.52
2019-04-06T22:08:55.020Z,93742.38
2019-04-06T22:11:25.003Z,93740.12
2019-04-06T22:13:54.856Z,93741.17
2019-04-06T22:16:24.856Z,93740.55
2019-04-06T22:18:55.195Z,93736.22
2019-04-06T22:21:25.070Z,93729.21
2019-04-06T22:23:55.014Z,93728.89
2019-04-06T22:26:25.019Z,93724.80
2019-04-06T22:28:54.859Z,93726.55
2019-04-06T22:31:24.775Z,93734.08
2019-04-06T22:33:54.703Z,93737.58
2019-04-06T22:36:24.564Z,93733.38
2019-04-06T22:38:55.070Z,93731.34
2019-04-06T22:41:25.098Z,93722.30
2019-04-06T22:43:55.068Z,93724.53
2019-04-06T22:46:25.208Z,93726.23
2019-04-06T22:48:55.218Z,93727.48
2019-04-06T22:51:25.026Z,93726.92
2019-04-06T22:53:54.893Z,93731.05
2019-04-06T22:56:24.880Z,93735.95
2019-04-06T22:58:54.716Z,93737.66
2019-04-06T23:01:25.534Z,93739.83
2019-04-06T23:04:33.230Z,93738.36
2019-04-06T23:07:07.517Z,93745.00
2019-04-06T23:09:37.588Z,93738.20
2019-04-06T23:12:07.496Z,93730.99
2019-04-06T23:14:37.476Z,93736.02
2019-04-06T23:17:07.305Z,93734.35
2019-04-06T23:19:37.551Z,93726.61
2019-04-06T23:22:07.562Z,93726.64
2019-04-06T23:24:37.497Z,93730.13
2019-04-06T23:27:07.826Z,93726.58
2019-04-06T23:29:38.345Z,93722.45
2019-04-06T23:32:08.252Z,93721.38
2019-04-06T23:34:38.199Z,93722.73
2019-04-06T23:37:08.416Z,93726.81
2019-04-06T23:39:38.983Z,93723.42
2019-04-06T23:42:08.897Z,93724.83
2019-04-06T23:44:38.727Z,93714.67
2019-04-06T23:47:08.646Z,93716.70
2019-04-06T23:49:38.566Z,93723.94
2019-04-06T23:52:08.529Z,93724.94
2019-04-06T23:54:38.425Z,93720.31
2019-04-06T23:57:08.286Z,93720.42
2019-04-06T23:59:38.439Z,93717.56
